createdAt,value
2022-12-15T00:02:58.453Z,-4.60
2022-12-15T00:06:04.091Z,-4.60
2022-12-15T00:09:14.063Z,-4.70
2022-12-15T00:12:20.036Z,-4.70
2022-12-15T00:15:26.022Z,-4.80
2022-12-15T00:18:33.078Z,-4.80
2022-12-15T00:21:38.947Z,-4.90
2022-12-15T00:24:44.488Z,-5.00
2022-12-15T00:27:55.386Z,-5.10
2022-12-15T00:31:02.711Z,-5.00
2022-12-15T00:34:10.102Z,-5.00
2022-12-15T00:37:15.959Z,-5.00
2022-12-15T00:40:05.427Z,-4.90
2022-12-15T00:42:53.466Z,-4.80
2022-12-15T00:45:59.250Z,-4.70
2022-12-15T00:48:48.291Z,-4.60
2022-12-15T00:51:55.402Z,-4.70
2022-12-15T00:55:00.890Z,-4.70
2022-12-15T00:58:06.289Z,-4.80
2022-12-15T01:01:11.653Z,-4.70
2022-12-15T01:04:16.907Z,-4.70
2022-12-15T01:07:24.036Z,-4.50
2022-12-15T01:10:30.224Z,-4.50
2022-12-15T01:13:35.633Z,-4.60
2022-12-15T01:16:41.830Z,-4.80
2022-12-15T01:19:47.926Z,-4.80
2022-12-15T01:22:40.060Z,-4.80
2022-12-15T01:25:29.043Z,-4.80
2022-12-15T01:28:17.470Z,-4.90
2022-12-15T01:31:12.068Z,-4.90
2022-12-15T01:34:00.239Z,-5.00
2022-12-15T01:36:48.315Z,-5.00
2022-12-15T01:39:55.280Z,-5.00
2022-12-15T01:42:43.442Z,-5.10
2022-12-15T01:45:54.251Z,-5.10
2022-12-15T01:48:47.235Z,-5.10
2022-12-15T01:51:40.421Z,-5.00
2022-12-15T01:54:32.845Z,-4.90
2022-12-15T01:57:26.649Z,-4.80
2022-12-15T02:00:15.813Z,-4.80
2022-12-15T02:03:07.079Z,-4.80
2022-12-15T02:05:56.053Z,-4.90
2022-12-15T02:08:46.978Z,-4.80
2022-12-15T02:11:58.512Z,-4.80
2022-12-15T02:15:07.205Z,-4.90
2022-12-15T02:18:05.155Z,-4.70
2022-12-15T02:20:59.722Z,-4.70
2022-12-15T02:24:19.651Z,-4.70
2022-12-15T02:27:40.599Z,-4.70
2022-12-15T02:30:42.387Z,-4.70
2022-12-15T02:33:33.328Z,-4.80
2022-12-15T02:36:28.564Z,-4.80
2022-12-15T02:39:18.608Z,-4.90
2022-12-15T02:42:06.729Z,-4.80
2022-12-15T02:45:01.355Z,-4.70
2022-12-15T02:47:56.530Z,-4.60
2022-12-15T02:50:55.645Z,-4.70
2022-12-15T02:54:00.271Z,-4.70
2022-12-15T02:56:57.027Z,-4.70
2022-12-15T02:59:55.905Z,-4.70
2022-12-15T03:02:47.336Z,-4.70
2022-12-15T03:05:37.077Z,-4.80
2022-12-15T03:08:25.783Z,-4.90
2022-12-15T03:11:13.844Z,-4.80
2022-12-15T03:14:01.885Z,-4.70
2022-12-15T03:16:50.222Z,-4.70
2022-12-15T03:19:38.291Z,-4.90
2022-12-15T03:22:27.712Z,-5.00
2022-12-15T03:25:15.824Z,-5.20
2022-12-15T03:28:03.911Z,-5.30
2022-12-15T03:30:52.002Z,-5.20
2022-12-15T03:33:41.081Z,-5.20
2022-12-15T03:36:29.423Z,-5.20
2022-12-15T03:39:18.854Z,-5.40
2022-12-15T03:42:06.972Z,-5.50
2022-12-15T03:44:55.014Z,-5.60
2022-12-15T03:47:43.467Z,-5.70
2022-12-15T03:50:31.899Z,-5.70
2022-12-15T03:53:20.054Z,-5.70
2022-12-15T03:56:10.028Z,-5.70
2022-12-15T03:58:58.084Z,-5.80
2022-12-15T04:01:49.199Z,-5.80
2022-12-15T04:04:37.456Z,-5.80
2022-12-15T04:07:25.590Z,-5.80
2022-12-15T04:10:13.928Z,-5.80
2022-12-15T04:13:05.144Z,-5.90
2022-12-15T04:15:53.257Z,-5.90
2022-12-15T04:18:41.510Z,-5.90
2022-12-15T04:21:28.567Z,-6.00
2022-12-15T04:24:33.944Z,-6.00
2022-12-15T04:27:39.356Z,-6.00
2022-12-15T04:30:46.393Z,-6.10
2022-12-15T04:33:52.823Z,-6.10
2022-12-15T04:37:00.571Z,-6.20
2022-12-15T04:40:10.601Z,-6.30
2022-12-15T04:43:16.141Z,-6.30
2022-12-15T04:46:23.210Z,-6.20
2022-12-15T04:49:28.584Z,-6.20
2022-12-15T04:52:34.168Z,-6.30
2022-12-15T04:55:39.731Z,-6.40
2022-12-15T04:58:45.266Z,-6.20
2022-12-15T05:01:52.812Z,-6.30
2022-12-15T05:04:58.588Z,-6.30
2022-12-15T05:08:04.487Z,-6.10
2022-12-15T05:11:09.983Z,-6.10
2022-12-15T05:14:15.303Z,-5.90
2022-12-15T05:17:22.404Z,-5.70
2022-12-15T05:20:28.571Z,-5.70
2022-12-15T05:23:34.207Z,-5.60
2022-12-15T05:26:39.781Z,-5.60
2022-12-15T05:29:45.070Z,-5.60
2022-12-15T05:32:34.995Z,-5.60
2022-12-15T05:35:23.961Z,-5.60
2022-12-15T05:38:12.233Z,-5.60
2022-12-15T05:41:01.082Z,-5.60
2022-12-15T05:43:49.414Z,-5.60
2022-12-15T05:46:37.678Z,-5.70
2022-12-15T05:49:27.158Z,-5.70
2022-12-15T05:52:15.332Z,-5.80
2022-12-15T05:55:03.488Z,-5.80
2022-12-15T05:57:53.325Z,-5.70
2022-12-15T06:00:41.418Z,-5.70
2022-12-15T06:03:29.933Z,-5.70
2022-12-15T06:06:20.509Z,-5.80
2022-12-15T06:09:09.239Z,-5.80
2022-12-15T06:11:57.300Z,-5.80
2022-12-15T06:14:45.461Z,-5.90
2022-12-15T06:17:33.570Z,-5.90
2022-12-15T06:20:21.616Z,-5.90
2022-12-15T06:23:11.912Z,-5.90
2022-12-15T06:26:01.097Z,-6.00
2022-12-15T06:28:50.137Z,-6.10
2022-12-15T06:31:39.004Z,-6.20
2022-12-15T06:34:27.653Z,-6.30
2022-12-15T06:37:16.271Z,-6.20
2022-12-15T06:40:06.653Z,-6.20
2022-12-15T06:42:54.782Z,-6.10
2022-12-15T06:45:49.918Z,-6.10
2022-12-15T06:48:38.287Z,-6.10
2022-12-15T06:51:27.168Z,-6.20
2022-12-15T06:54:15.501Z,-6.20
2022-12-15T06:57:05.012Z,-6.20
2022-12-15T06:59:53.199Z,-6.20
2022-12-15T07:02:43.340Z,-6.30
2022-12-15T07:05:37.887Z,-6.40
2022-12-15T07:08:31.412Z,-6.50
2022-12-15T07:11:22.583Z,-6.60
2022-12-15T07:14:12.263Z,-6.60
2022-12-15T07:17:00.402Z,-6.70
2022-12-15T07:19:48.629Z,-6.80
2022-12-15T07:22:36.747Z,-6.90
2022-12-15T07:25:25.105Z,-7.00
2022-12-15T07:28:13.217Z,-7.00
2022-12-15T07:31:05.101Z,-7.00
2022-12-15T07:33:54.688Z,-7.00
2022-12-15T07:36:48.490Z,-7.10
2022-12-15T07:39:39.767Z,-7.00
2022-12-15T07:42:30.170Z,-7.10
2022-12-15T07:45:18.315Z,-7.10
2022-12-15T07:48:07.940Z,-7.10
2022-12-15T07:51:07.359Z,-7.10
2022-12-15T07:53:57.983Z,-7.20
2022-12-15T07:56:50.268Z,-7.20
2022-12-15T07:59:38.913Z,-7.20
2022-12-15T08:02:27.265Z,-7.10
2022-12-15T08:05:16.960Z,-7.10
2022-12-15T08:08:06.704Z,-7.00
2022-12-15T08:10:56.540Z,-7.00
2022-12-15T08:16:53.312Z,-6.90
2022-12-15T08:19:41.406Z,-6.80
2022-12-15T08:22:30.804Z,-6.70
2022-12-15T08:25:18.845Z,-6.50
2022-12-15T08:28:06.915Z,-6.40
2022-12-15T08:30:55.102Z,-6.30
2022-12-15T08:33:43.574Z,-6.00
2022-12-15T08:36:31.777Z,-6.20
2022-12-15T08:39:23.710Z,-6.20
2022-12-15T08:42:11.801Z,-6.20
2022-12-15T08:44:59.876Z,-6.20
2022-12-15T08:47:47.967Z,-6.10
2022-12-15T08:50:36.024Z,-6.00
2022-12-15T08:53:32.238Z,-5.90
2022-12-15T08:56:23.263Z,-5.80
2022-12-15T08:59:11.351Z,-5.70
2022-12-15T09:02:00.618Z,-5.60
2022-12-15T09:04:50.901Z,-5.50
2022-12-15T09:07:40.431Z,-5.50
2022-12-15T09:10:28.605Z,-5.40
2022-12-15T09:13:18.081Z,-5.30
2022-12-15T09:16:10.466Z,-5.20
2022-12-15T09:19:00.567Z,-5.10
2022-12-15T09:21:49.470Z,-5.00
2022-12-15T09:24:37.674Z,-5.00
2022-12-15T09:27:25.912Z,-5.00
2022-12-15T09:30:15.895Z,-5.10
2022-12-15T09:33:04.571Z,-5.00
2022-12-15T09:35:54.428Z,-4.90
2022-12-15T09:38:44.012Z,-4.80
2022-12-15T09:41:34.491Z,-4.60
2022-12-15T09:44:25.600Z,-4.60
2022-12-15T09:47:22.973Z,-4.60
2022-12-15T09:50:13.376Z,-4.50
2022-12-15T09:53:03.367Z,-4.30
2022-12-15T09:55:57.537Z,-4.20
2022-12-15T09:58:53.427Z,-4.20
2022-12-15T10:01:49.023Z,-4.20
2022-12-15T10:04:50.936Z,-4.10
2022-12-15T10:07:44.222Z,-4.00
2022-12-15T10:10:40.421Z,-3.90
2022-12-15T10:13:37.089Z,-3.70
2022-12-15T10:16:31.686Z,-3.80
2022-12-15T10:19:27.688Z,-3.80
2022-12-15T10:22:21.249Z,-3.70
2022-12-15T10:25:17.020Z,-3.60
2022-12-15T10:28:23.114Z,-3.50
2022-12-15T10:31:19.661Z,-3.50
2022-12-15T10:34:12.481Z,-3.50
2022-12-15T10:37:00.765Z,-3.50
2022-12-15T10:39:52.036Z,-3.50
2022-12-15T10:42:48.370Z,-3.50
2022-12-15T10:45:39.645Z,-3.50
2022-12-15T10:48:27.685Z,-3.50
2022-12-15T10:51:19.199Z,-3.40
2022-12-15T10:54:13.881Z,-3.40
2022-12-15T10:57:16.778Z,-3.20
2022-12-15T11:00:28.443Z,-3.20
2022-12-15T11:03:25.152Z,-3.00
2022-12-15T11:06:19.092Z,-2.90
2022-12-15T11:09:28.273Z,-2.80
2022-12-15T11:12:38.081Z,-2.70
2022-12-15T11:15:41.879Z,-2.60
2022-12-15T11:18:37.804Z,-2.50
2022-12-15T11:21:28.691Z,-2.30
2022-12-15T11:24:21.739Z,-2.30
2022-12-15T11:27:20.785Z,-2.20
2022-12-15T11:30:13.867Z,-2.10
2022-12-15T11:33:03.066Z,-2.00
2022-12-15T11:35:59.362Z,-1.90
2022-12-15T11:38:50.993Z,-1.90
2022-12-15T11:41:42.781Z,-1.80
2022-12-15T11:44:35.832Z,-1.70
2022-12-15T11:47:28.305Z,-1.70
2022-12-15T11:50:20.943Z,-1.70
2022-12-15T11:53:16.726Z,-1.70
2022-12-15T11:56:08.613Z,-1.60
2022-12-15T11:59:11.306Z,-1.60
2022-12-15T12:02:10.637Z,-1.50
2022-12-15T12:05:08.301Z,-1.50
2022-12-15T12:08:00.857Z,-1.50
2022-12-15T12:10:51.910Z,-1.50
2022-12-15T12:13:44.375Z,-1.40
2022-12-15T12:16:37.320Z,-1.40
2022-12-15T12:19:31.291Z,-1.40
2022-12-15T12:22:22.955Z,-1.30
2022-12-15T12:25:13.255Z,-1.30
2022-12-15T12:28:03.701Z,-1.20
2022-12-15T12:30:51.622Z,-1.20
2022-12-15T12:33:41.636Z,-1.10
2022-12-15T12:36:30.850Z,-1.10
2022-12-15T12:39:20.862Z,-1.00
2022-12-15T12:42:11.632Z,-1.00
2022-12-15T12:44:59.553Z,-1.00
2022-12-15T12:47:50.784Z,-0.90
2022-12-15T12:50:38.686Z,-0.90
2022-12-15T12:53:32.957Z,-0.80
2022-12-15T12:56:38.884Z,-0.80
2022-12-15T12:59:36.420Z,-0.80
2022-12-15T13:02:57.708Z,-0.80
2022-12-15T13:05:46.884Z,-0.80
2022-12-15T13:08:51.216Z,-0.90
2022-12-15T13:11:55.284Z,-0.80
2022-12-15T13:14:51.603Z,-0.80
2022-12-15T13:17:41.620Z,-0.80
2022-12-15T13:20:30.346Z,-0.70
2022-12-15T13:23:35.976Z,-0.70
2022-12-15T13:26:31.580Z,-0.70
2022-12-15T13:29:23.752Z,-0.70
2022-12-15T13:32:25.050Z,-0.60
2022-12-15T13:35:23.598Z,-0.60
2022-12-15T13:38:17.851Z,-0.70
2022-12-15T13:41:22.546Z,-0.70
2022-12-15T13:44:15.718Z,-0.70
2022-12-15T13:47:07.012Z,-0.80
2022-12-15T13:50:01.736Z,-0.70
2022-12-15T13:53:18.355Z,-0.80
2022-12-15T13:56:05.148Z,-0.70
2022-12-15T13:58:58.070Z,-0.70
2022-12-15T14:01:52.149Z,-0.70
2022-12-15T14:04:40.117Z,-0.70
2022-12-15T14:07:28.700Z,-0.60
2022-12-15T14:10:21.186Z,-0.60
2022-12-15T14:16:21.500Z,-0.70
2022-12-15T14:19:15.793Z,-0.80
2022-12-15T14:22:03.688Z,-0.80
2022-12-15T14:24:52.204Z,-0.80
2022-12-15T14:27:40.099Z,-0.80
2022-12-15T14:30:29.466Z,-0.80
2022-12-15T14:33:18.075Z,-0.80
2022-12-15T14:36:08.984Z,-0.80
2022-12-15T14:38:58.812Z,-0.80
2022-12-15T14:41:50.537Z,-0.80
2022-12-15T14:44:40.522Z,-0.80
2022-12-15T14:47:35.009Z,-0.90
2022-12-15T14:53:34.542Z,-0.80
2022-12-15T14:56:30.105Z,-0.80
2022-12-15T14:59:19.746Z,-0.90
2022-12-15T15:02:13.929Z,-0.90
2022-12-15T15:03:06.093Z,-1.00
2022-12-15T15:03:10.458Z,-0.60
2022-12-15T15:05:04.127Z,-1.00
2022-12-15T15:07:56.287Z,-1.10
2022-12-15T15:10:45.717Z,-1.10
2022-12-15T15:13:39.739Z,-1.20
2022-12-15T15:16:28.496Z,-1.30
2022-12-15T15:19:18.358Z,-1.50
2022-12-15T15:22:06.388Z,-1.60
2022-12-15T15:24:54.227Z,-1.80
2022-12-15T15:27:43.488Z,-1.90
2022-12-15T15:30:41.660Z,-1.80
2022-12-15T15:33:29.734Z,-1.70
2022-12-15T15:36:17.621Z,-1.60
2022-12-15T15:39:10.844Z,-1.70
2022-12-15T15:42:00.219Z,-1.70
2022-12-15T15:44:49.533Z,-1.70
2022-12-15T15:47:37.924Z,-1.60
2022-12-15T15:50:28.619Z,-1.70
2022-12-15T15:53:17.960Z,-1.90
2022-12-15T15:56:07.807Z,-1.90
2022-12-15T15:58:55.752Z,-1.80
2022-12-15T16:01:46.201Z,-1.80
2022-12-15T16:04:36.399Z,-1.90
2022-12-15T16:07:25.357Z,-2.10
2022-12-15T16:10:14.649Z,-2.20
2022-12-15T16:13:03.107Z,-2.40
2022-12-15T16:15:51.181Z,-2.40
2022-12-15T16:18:40.526Z,-2.50
2022-12-15T16:21:28.707Z,-2.50
2022-12-15T16:24:18.631Z,-2.60
2022-12-15T16:27:06.916Z,-2.60
2022-12-15T16:29:54.762Z,-2.60
2022-12-15T16:32:42.787Z,-2.70
2022-12-15T16:35:32.041Z,-2.70
2022-12-15T16:38:24.386Z,-2.70
2022-12-15T16:41:13.788Z,-2.70
2022-12-15T16:44:01.718Z,-2.70
2022-12-15T16:46:49.664Z,-2.80
2022-12-15T16:49:40.300Z,-2.80
2022-12-15T16:52:30.463Z,-2.80
2022-12-15T16:55:25.990Z,-2.80
2022-12-15T16:58:15.682Z,-2.90
2022-12-15T17:01:03.930Z,-2.90
2022-12-15T17:03:52.153Z,-2.90
2022-12-15T17:06:40.244Z,-2.90
2022-12-15T17:09:29.689Z,-2.90
2022-12-15T17:12:18.639Z,-3.00
2022-12-15T17:15:09.957Z,-3.00
2022-12-15T17:17:58.224Z,-3.00
2022-12-15T17:20:46.121Z,-3.10
2022-12-15T17:23:35.343Z,-3.10
2022-12-15T17:26:29.762Z,-3.10
2022-12-15T17:29:20.292Z,-3.10
2022-12-15T17:32:12.351Z,-3.10
2022-12-15T17:35:01.565Z,-3.10
2022-12-15T17:37:50.486Z,-3.10
2022-12-15T17:40:38.446Z,-3.10
2022-12-15T17:43:33.808Z,-3.20
2022-12-15T17:46:23.524Z,-3.20
2022-12-15T17:49:11.470Z,-3.10
2022-12-15T17:52:02.195Z,-3.10
2022-12-15T17:54:50.501Z,-3.10
2022-12-15T17:57:40.915Z,-3.00
2022-12-15T18:00:30.824Z,-3.10
2022-12-15T18:03:19.626Z,-3.10
2022-12-15T18:06:13.301Z,-3.20
2022-12-15T18:09:01.427Z,-3.20
2022-12-15T18:11:52.288Z,-3.20
2022-12-15T18:14:40.487Z,-3.30
2022-12-15T18:17:29.711Z,-3.30
2022-12-15T18:20:18.738Z,-3.40
2022-12-15T18:23:10.771Z,-3.40
2022-12-15T18:26:02.930Z,-3.50
2022-12-15T18:28:51.219Z,-3.40
2022-12-15T18:31:39.185Z,-3.40
2022-12-15T18:34:28.781Z,-3.40
2022-12-15T18:37:17.749Z,-3.40
2022-12-15T18:40:06.610Z,-3.40
2022-12-15T18:42:55.327Z,-3.40
2022-12-15T18:45:43.782Z,-3.40
2022-12-15T18:48:33.288Z,-3.40
2022-12-15T18:51:23.423Z,-3.30
2022-12-15T18:54:16.454Z,-3.40
2022-12-15T18:57:04.599Z,-3.40
2022-12-15T18:59:53.522Z,-3.40
2022-12-15T19:02:42.005Z,-3.50
2022-12-15T19:05:32.323Z,-3.60
2022-12-15T19:08:25.569Z,-3.60
2022-12-15T19:11:18.494Z,-3.50
2022-12-15T19:14:28.564Z,-3.50
2022-12-15T19:17:37.518Z,-3.50
2022-12-15T19:20:43.258Z,-3.60
2022-12-15T19:23:32.911Z,-3.60
2022-12-15T19:26:28.612Z,-3.70
2022-12-15T19:29:17.897Z,-3.70
2022-12-15T19:32:06.072Z,-3.70
2022-12-15T19:34:54.046Z,-3.70
2022-12-15T19:37:44.765Z,-3.70
2022-12-15T19:40:34.996Z,-3.80
2022-12-15T19:43:23.493Z,-3.70
2022-12-15T19:46:14.717Z,-3.80
2022-12-15T19:49:02.814Z,-3.80
2022-12-15T19:51:50.865Z,-3.70
2022-12-15T19:54:38.753Z,-3.60
2022-12-15T19:57:27.954Z,-3.60
2022-12-15T20:00:17.095Z,-3.60
2022-12-15T20:03:06.587Z,-3.60
2022-12-15T20:05:56.497Z,-3.60
2022-12-15T20:08:46.735Z,-3.50
2022-12-15T20:11:34.703Z,-3.60
2022-12-15T20:14:24.431Z,-3.70
2022-12-15T20:17:12.345Z,-3.70
2022-12-15T20:20:00.194Z,-3.60
2022-12-15T20:22:51.309Z,-3.60
2022-12-15T20:25:40.331Z,-3.60
2022-12-15T20:28:28.966Z,-3.70
2022-12-15T20:31:19.500Z,-3.70
2022-12-15T20:34:07.453Z,-3.70
2022-12-15T20:36:58.378Z,-3.60
2022-12-15T20:39:46.334Z,-3.60
2022-12-15T20:42:37.496Z,-3.60
2022-12-15T20:45:27.136Z,-3.70
2022-12-15T20:48:17.176Z,-3.70
2022-12-15T20:51:09.222Z,-3.80
2022-12-15T20:53:58.880Z,-3.80
2022-12-15T20:56:47.788Z,-3.80
2022-12-15T20:59:35.751Z,-3.80
2022-12-15T21:02:24.987Z,-3.80
2022-12-15T21:05:18.721Z,-3.80
2022-12-15T21:08:10.490Z,-3.70
2022-12-15T21:11:00.954Z,-3.70
2022-12-15T21:13:49.608Z,-3.70
2022-12-15T21:16:37.571Z,-3.60
2022-12-15T21:19:26.001Z,-3.50
2022-12-15T21:22:19.866Z,-3.40
2022-12-15T21:25:15.882Z,-3.40
2022-12-15T21:28:03.716Z,-3.40
2022-12-15T21:30:55.089Z,-3.40
2022-12-15T21:33:46.586Z,-3.40
2022-12-15T21:36:34.611Z,-3.40
2022-12-15T21:39:25.506Z,-3.50
2022-12-15T21:42:15.115Z,-3.70
2022-12-15T21:45:03.068Z,-3.80
2022-12-15T21:48:11.045Z,-3.80
2022-12-15T21:50:58.959Z,-3.90
2022-12-15T21:53:47.629Z,-3.90
2022-12-15T21:56:36.948Z,-4.00
2022-12-15T21:59:27.308Z,-3.90
2022-12-15T22:02:23.090Z,-3.80
2022-12-15T22:05:16.420Z,-3.70
2022-12-15T22:08:17.793Z,-3.70
2022-12-15T22:11:14.208Z,-3.60
2022-12-15T22:14:04.602Z,-3.60
2022-12-15T22:16:52.751Z,-3.50
2022-12-15T22:19:40.661Z,-3.50
2022-12-15T22:22:31.987Z,-3.50
2022-12-15T22:25:21.209Z,-3.50
2022-12-15T22:28:11.499Z,-3.40
2022-12-15T22:31:02.637Z,-3.50
2022-12-15T22:33:50.636Z,-3.50
2022-12-15T22:36:38.642Z,-3.50
2022-12-15T22:39:26.555Z,-3.50
2022-12-15T22:42:16.162Z,-3.50
2022-12-15T22:45:04.264Z,-3.50
2022-12-15T22:47:55.068Z,-3.60
2022-12-15T22:50:43.439Z,-3.60
2022-12-15T22:53:32.269Z,-3.70
2022-12-15T22:56:22.858Z,-3.70
2022-12-15T22:59:13.696Z,-3.80
2022-12-15T23:02:02.228Z,-3.90
2022-12-15T23:04:51.610Z,-3.80
2022-12-15T23:07:39.594Z,-3.80
2022-12-15T23:10:45.036Z,-3.90
2022-12-15T23:13:33.370Z,-3.90
2022-12-15T23:16:21.536Z,-3.90
2022-12-15T23:19:10.203Z,-3.80
2022-12-15T23:21:59.697Z,-3.90
2022-12-15T23:24:47.649Z,-3.90
2022-12-15T23:27:35.569Z,-3.90
2022-12-15T23:30:23.476Z,-3.80
2022-12-15T23:33:11.420Z,-3.80
2022-12-15T23:36:00.156Z,-3.70
2022-12-15T23:38:50.128Z,-3.90
2022-12-15T23:41:40.135Z,-3.90
2022-12-15T23:44:28.116Z,-3.80
2022-12-15T23:47:15.965Z,-3.80
2022-12-15T23:50:03.993Z,-3.90
2022-12-15T23:52:52.097Z,-3.80
2022-12-15T23:55:41.806Z,-3.80
2022-12-15T23:58:29.617Z,-3.60
